Antrim, Nova Scotia

12:27 AM ADT on June 25, 2017 (GMT -0300)
Lantz | | Change Station

Elev 43 ft 44.98 °N, 63.47 °W | Updated 31 seconds ago

Overcast
Overcast
62.1 °F
Feels Like 62.1 °F
N
0.0
Wind Variable Wind from WNW

Today
High -- | Low -- °F
--% Chance of Precip.
Yesterday
High -- | Low -- °F
Precip. -- in
Pressure 29.67 in
Visibility 0.8 miles
Clouds
Dew Point 61 °F
Humidity 98%
Rainfall 0.00 in
Snow Depth Not available.
5:28 AM 9:04 PM
New Moon, 2% visible
SPECI CYHZ 250324Z 25004KT 3/4SM R23/4500VP6000FT/U R14/P6000FT/D BR VV002 17/17 A2966 RMK FG8 SLP045 DENSITY ALT 1100FT
Pressure 29.67 in
Visibility 0.8 miles
Clouds
Dew Point 61 °F
Humidity 98%
Rainfall 0.00 in
Snow Depth Not available.
5:28 AM 9:04 PM
New Moon, 2% visible
SPECI CYHZ 250324Z 25004KT 3/4SM R23/4500VP6000FT/U R14/P6000FT/D BR VV002 17/17 A2966 RMK FG8 SLP045 DENSITY ALT 1100FT

Get Severe Weather Alerts

Thanks for signing up!

Be on the lookout for a verification email in your inbox.

You'll start receiving the daily forecast at 6 AM.

×

10-Day Weather Forecast

Almanac

Astronomy

Jun. 25, 2017 Rise Set
Actual Time
Civil Twilight
Nautical Twilight
Astronomical Twilight
Moon
Length of Visible Light
Length of Day
Tomorrow will be .
, % of the Moon is Illuminated

Today's Extremes

Country Highs Country Lows

Community

WunderPhotos

Category 6

Welcome to Category 6. This is the collective home for Weather Underground's featured writeups by Dr. Jeff Masters (right), Bob Henson (left), Chris Burt, and other regular contributors.

Nearby

Air Quality

  Air Quality AQ Index Pollutant
Not available.

Snow Depth

Station Depth Elevation

Earthquake Activity

City Distance Mag. Time & Date
Minimum magnitude displayed is 2.5.

Coastal Water Temperatures

Place Temperature

Stations

Nearby Weather Stations

Station Location Temp. Windchill Dew Point Humidity Wind Precip. Elev Updated Type
                   

Watches & Warnings

There are currently no watches in effect.